地図

経路データ

SID SEASON NUMBER BASIN SUBBASIN NAME ISO_TIME NATURE LAT LON WMO_WIND WMO_PRES WMO_AGENCY TRACK_TYPE DIST2LAND LANDFALL IFLAG USA_AGENCY USA_ATCF_ID USA_LAT USA_LON USA_RECORD USA_STATUS USA_WIND USA_PRES USA_SSHS USA_R34_NE USA_R34_SE USA_R34_SW USA_R34_NW USA_R50_NE USA_R50_SE USA_R50_SW USA_R50_NW USA_R64_NE USA_R64_SE USA_R64_SW USA_R64_NW USA_POCI USA_ROCI USA_RMW USA_EYE TOKYO_LAT TOKYO_LON TOKYO_GRADE TOKYO_WIND TOKYO_PRES TOKYO_R50_DIR TOKYO_R50_LONG TOKYO_R50_SHORT TOKYO_R30_DIR TOKYO_R30_LONG TOKYO_R30_SHORT TOKYO_LAND CMA_LAT CMA_LON CMA_CAT CMA_WIND CMA_PRES HKO_LAT HKO_LON HKO_CAT HKO_WIND HKO_PRES NEWDELHI_LAT NEWDELHI_LON NEWDELHI_GRADE NEWDELHI_WIND NEWDELHI_PRES NEWDELHI_CI NEWDELHI_DP NEWDELHI_POCI REUNION_LAT REUNION_LON REUNION_TYPE REUNION_WIND REUNION_PRES REUNION_TNUM REUNION_CI REUNION_RMW REUNION_R34_NE REUNION_R34_SE REUNION_R34_SW REUNION_R34_NW REUNION_R50_NE REUNION_R50_SE REUNION_R50_SW REUNION_R50_NW REUNION_R64_NE REUNION_R64_SE REUNION_R64_SW REUNION_R64_NW BOM_LAT BOM_LON BOM_TYPE BOM_WIND BOM_PRES BOM_TNUM BOM_CI BOM_RMW BOM_R34_NE BOM_R34_SE BOM_R34_SW BOM_R34_NW BOM_R50_NE BOM_R50_SE BOM_R50_SW BOM_R50_NW BOM_R64_NE BOM_R64_SE BOM_R64_SW BOM_R64_NW BOM_ROCI BOM_POCI BOM_EYE BOM_POS_METHOD BOM_PRES_METHOD NADI_LAT NADI_LON NADI_CAT NADI_WIND NADI_PRES WELLINGTON_LAT WELLINGTON_LON WELLINGTON_WIND WELLINGTON_PRES DS824_LAT DS824_LON DS824_STAGE DS824_WIND DS824_PRES TD9636_LAT TD9636_LON TD9636_STAGE TD9636_WIND TD9636_PRES TD9635_LAT TD9635_LON TD9635_WIND TD9635_PRES TD9635_ROCI NEUMANN_LAT NEUMANN_LON NEUMANN_CLASS NEUMANN_WIND NEUMANN_PRES MLC_LAT MLC_LON MLC_CLASS MLC_WIND MLC_PRES USA_GUST BOM_GUST BOM_GUST_PER REUNION_GUST REUNION_GUST_PER USA_SEAHGT USA_SEARAD_NE USA_SEARAD_SE USA_SEARAD_SW USA_SEARAD_NW STORM_SPEED STORM_DIR
1925345S13067 1926 62 SI MM NOT_NAMED 1925-12-11 06:00:00 NR -13.3000 66.5000 reunion main 1206 1198 _____O________ -1 -13.3000 66.5000 99 9.90000 2 246
1925345S13067 1926 62 SI MM NOT_NAMED 1925-12-11 09:00:00 NR -13.3482 66.3864 main 1198 1183 _____P________ -1 -13.3482 66.3864 99 2 246
1925345S13067 1926 62 SI MM NOT_NAMED 1925-12-11 12:00:00 NR -13.4002 66.2657 main 1183 1159 _____P________ -1 -13.4002 66.2657 99 3 246
1925345S13067 1926 62 SI MM NOT_NAMED 1925-12-11 15:00:00 NR -13.4596 66.1310 main 1159 1151 _____P________ -1 -13.4596 66.1310 99 3 245
1925345S13067 1926 62 SI MM NOT_NAMED 1925-12-11 18:00:00 NR -13.5303 65.9753 main 1151 1127 _____P________ -1 -13.5303 65.9753 99 4 245
1925345S13067 1926 62 SI MM NOT_NAMED 1925-12-11 21:00:00 NR -13.6160 65.7914 main 1127 1103 _____P________ -1 -13.6160 65.7914 99 4 244
1925345S13067 1926 62 SI MM NOT_NAMED 1925-12-12 00:00:00 NR -13.7204 65.5724 main 1103 1072 _____P________ -1 -13.7204 65.5724 99 5 244
1925345S13067 1926 62 SI MM NOT_NAMED 1925-12-12 03:00:00 NR -13.8472 65.3110 main 1072 1033 _____P________ -1 -13.8472 65.3110 99 6 243
1925345S13067 1926 62 SI MM NOT_NAMED 1925-12-12 06:00:00 NR -14.0000 65.0000 reunion main 1033 994 _____O________ -1 -14.0000 65.0000 99 9.90000 7 243
1925345S13067 1926 62 SI MM NOT_NAMED 1925-12-12 09:00:00 NR -14.1812 64.6356 main 986 947 _____P________ -1 -14.1812 64.6356 99 8 243
1925345S13067 1926 62 SI MM NOT_NAMED 1925-12-12 12:00:00 NR -14.3886 64.2274 main 939 893 _____P________ -1 -14.3886 64.2274 99 9 242
1925345S13067 1926 62 SI MM NOT_NAMED 1925-12-12 15:00:00 NR -14.6189 63.7886 main 893 838 _____P________ -1 -14.6189 63.7886 99 10 241
1925345S13067 1926 62 SI MM NOT_NAMED 1925-12-12 18:00:00 NR -14.8686 63.3323 main 831 785 _____P________ -1 -14.8686 63.3323 99 10 240
1925345S13067 1926 62 SI MM NOT_NAMED 1925-12-12 21:00:00 NR -15.1346 62.8720 main 785 724 _____P________ -1 -15.1346 62.8720 99 10 238
1925345S13067 1926 62 SI MM NOT_NAMED 1925-12-13 00:00:00 NR -15.4138 62.4208 main 724 670 _____P________ -1 -15.4138 62.4208 99 10 236
1925345S13067 1926 62 SI MM NOT_NAMED 1925-12-13 03:00:00 NR -15.7033 61.9923 main 670 616 _____P________ -1 -15.7033 61.9923 99 10 233
1925345S13067 1926 62 SI MM NOT_NAMED 1925-12-13 06:00:00 NR -16.0000 61.6000 reunion main 616 570 _____O________ -1 -16.0000 61.6000 99 9.90000 9 232
1925345S13067 1926 62 SI MM NOT_NAMED 1925-12-13 09:00:00 NR -16.2772 61.2397 main 563 525 _____P________ -1 -16.2772 61.2397 99 9 230
1925345S13067 1926 62 SI MM NOT_NAMED 1925-12-13 12:00:00 NR -16.5637 60.9047 main 517 479 _____P________ -1 -16.5637 60.9047 99 8 226
1925345S13067 1926 62 SI MM NOT_NAMED 1925-12-13 15:00:00 NR -16.8600 60.5999 main 470 433 _____P________ -1 -16.8600 60.5999 99 8 222
1925345S13067 1926 62 SI MM NOT_NAMED 1925-12-13 18:00:00 NR -17.1664 60.3301 main 424 385 _____P________ -1 -17.1664 60.3301 99 8 217
1925345S13067 1926 62 SI MM NOT_NAMED 1925-12-13 21:00:00 NR -17.4832 60.1002 main 385 346 _____P________ -1 -17.4832 60.1002 99 8 212
1925345S13067 1926 62 SI MM NOT_NAMED 1925-12-14 00:00:00 NR -17.8109 59.9152 main 346 314 _____P________ -1 -17.8109 59.9152 99 7 205
1925345S13067 1926 62 SI MM NOT_NAMED 1925-12-14 03:00:00 NR -18.1497 59.7801 main 314 275 _____P________ -1 -18.1497 59.7801 99 7 197
1925345S13067 1926 62 SI MM NOT_NAMED 1925-12-14 06:00:00 NR -18.5000 59.7000 reunion main 275 248 _____O________ -1 -18.5000 59.7000 99 9.90000 8 188
1925345S13067 1926 62 SI MM NOT_NAMED 1925-12-14 09:00:00 NR -18.8915 59.6615 main 248 227 _____P________ -1 -18.8915 59.6615 99 8 182
1925345S13067 1926 62 SI MM NOT_NAMED 1925-12-14 12:00:00 NR -19.2998 59.6800 main 227 209 _____P________ -1 -19.2998 59.6800 99 8 175
1925345S13067 1926 62 SI MM NOT_NAMED 1925-12-14 15:00:00 NR -19.7161 59.7488 main 209 209 _____P________ -1 -19.7161 59.7488 99 9 168
1925345S13067 1926 62 SI MM NOT_NAMED 1925-12-14 18:00:00 NR -20.1312 59.8608 main 220 218 _____P________ -1 -20.1312 59.8608 99 9 163
1925345S13067 1926 62 SI MM NOT_NAMED 1925-12-14 21:00:00 NR -20.5362 60.0091 main 230 230 _____P________ -1 -20.5362 60.0091 99 9 159
1925345S13067 1926 62 SI MM NOT_NAMED 1925-12-15 00:00:00 NR -20.9221 60.1866 main 258 258 _____P________ -1 -20.9221 60.1866 99 8 155
1925345S13067 1926 62 SI MM NOT_NAMED 1925-12-15 03:00:00 NR -21.2796 60.3861 main 292 292 _____P________ -1 -21.2796 60.3861 99 8 150
1925345S13067 1926 62 SI MM NOT_NAMED 1925-12-15 06:00:00 NR -21.6000 60.6000 reunion main 325 325 _____O________ -1 -21.6000 60.6000 99 9.90000 7 147
1925345S13067 1926 62 SI MM NOT_NAMED 1925-12-15 09:00:00 NR -21.8539 60.7802 main 357 357 _____P________ -1 -21.8539 60.7802 99 6 143
1925345S13067 1926 62 SI MM NOT_NAMED 1925-12-15 12:00:00 NR -22.0719 60.9801 main 385 385 _____P________ -1 -22.0719 60.9801 99 6 136
1925345S13067 1926 62 SI MM NOT_NAMED 1925-12-15 15:00:00 NR -22.2607 61.1979 main 414 414 _____P________ -1 -22.2607 61.1979 99 6 130
1925345S13067 1926 62 SI MM NOT_NAMED 1925-12-15 18:00:00 NR -22.4269 61.4321 main 437 437 _____P________ -1 -22.4269 61.4321 99 5 125
1925345S13067 1926 62 SI MM NOT_NAMED 1925-12-15 21:00:00 NR -22.5773 61.6810 main 475 475 _____P________ -1 -22.5773 61.6810 99 6 122
1925345S13067 1926 62 SI MM NOT_NAMED 1925-12-16 00:00:00 NR -22.7185 61.9429 main 498 498 _____P________ -1 -22.7185 61.9429 99 6 120
1925345S13067 1926 62 SI MM NOT_NAMED 1925-12-16 03:00:00 NR -22.8572 62.2165 main 536 536 _____P________ -1 -22.8572 62.2165 99 6 119
1925345S13067 1926 62 SI MM NOT_NAMED 1925-12-16 06:00:00 NR -23.0000 62.5000 reunion main 568 568 _____O________ -1 -23.0000 62.5000 99 9.90000 6 122
1925345S13067 1926 62 SI MM NOT_NAMED 1925-12-16 09:00:00 NR -23.1909 62.8069 main 606 606 _____P________ -1 -23.1909 62.8069 99 7 124
1925345S13067 1926 62 SI MM NOT_NAMED 1925-12-16 12:00:00 NR -23.3837 63.1292 main 644 644 _____P________ -1 -23.3837 63.1292 99 7 123
1925345S13067 1926 62 SI MM NOT_NAMED 1925-12-16 15:00:00 NR -23.5750 63.4602 main 690 690 _____P________ -1 -23.5750 63.4602 99 7 122
1925345S13067 1926 62 SI MM NOT_NAMED 1925-12-16 18:00:00 NR -23.7618 63.7929 main 728 728 _____P________ -1 -23.7618 63.7929 99 7 121
1925345S13067 1926 62 SI MM NOT_NAMED 1925-12-16 21:00:00 NR -23.9407 64.1203 main 760 760 _____P________ -1 -23.9407 64.1203 99 7 121
1925345S13067 1926 62 SI MM NOT_NAMED 1925-12-17 00:00:00 NR -24.1088 64.4354 main 797 797 _____P________ -1 -24.1088 64.4354 99 6 120
1925345S13067 1926 62 SI MM NOT_NAMED 1925-12-17 03:00:00 NR -24.2629 64.7310 main 835 835 _____P________ -1 -24.2629 64.7310 99 6 120
1925345S13067 1926 62 SI MM NOT_NAMED 1925-12-17 06:00:00 NR -24.4000 65.0000 reunion main 867 867 _____O________ -1 -24.4000 65.0000 99 9.90000 5 119
1925345S13067 1926 62 SI MM NOT_NAMED 1925-12-17 09:00:00 NR -24.5181 65.2370 main 890 890 _____P________ -1 -24.5181 65.2370 99 5 118
1925345S13067 1926 62 SI MM NOT_NAMED 1925-12-17 12:00:00 NR -24.6189 65.4444 main 913 913 _____P________ -1 -24.6189 65.4444 99 4 118
1925345S13067 1926 62 SI MM NOT_NAMED 1925-12-17 15:00:00 NR -24.7049 65.6261 main 936 936 _____P________ -1 -24.7049 65.6261 99 3 117
1925345S13067 1926 62 SI MM NOT_NAMED 1925-12-17 18:00:00 NR -24.7787 65.7865 main 959 959 _____P________ -1 -24.7787 65.7865 99 3 116
1925345S13067 1926 62 SI MM NOT_NAMED 1925-12-17 21:00:00 NR -24.8426 65.9298 main 968 968 _____P________ -1 -24.8426 65.9298 99 3 116
1925345S13067 1926 62 SI MM NOT_NAMED 1925-12-18 00:00:00 NR -24.8992 66.0603 main 991 991 _____P________ -1 -24.8992 66.0603 99 3 116
1925345S13067 1926 62 SI MM NOT_NAMED 1925-12-18 03:00:00 NR -24.9508 66.1823 main 1005 1005 _____P________ -1 -24.9508 66.1823 99 2 115
1925345S13067 1926 62 SI MM NOT_NAMED 1925-12-18 06:00:00 NR -25.0000 66.3000 reunion main 1014 _____O________ -1 -25.0000 66.3000 99 9.90000 2 114

IBTrACS Databaseについて

本データベースは、米国NOAAが公開する1842年以降の世界の熱帯低気圧のベストトラックデータアーカイブInternational Best Track Archive for Climate Stewardship (IBTrACS)を、ウェブで閲覧しやすい形式に変換したものです。

最終更新日:2021-10-19